Sac City, IA (50583)

4:24 AM CST on December 03, 2016 (GMT -0600)
Lake City | | Change Station

Elev 1191 ft 42.30 °N, 94.75 °W | Updated 7 seconds ago

Overcast
Overcast
33.1 °F
Feels Like 33 °F
N
0.0
Wind Variable Wind from WSW
Gusts 0.0 mph

Today
High -- | Low -- °F
--% Chance of Precip.
Yesterday
High -- | Low -- °F
Precip. -- in
Pressure 30.31 in
Visibility 10.0 miles
Clouds Overcast 2500 ft
Windchill 33 °F
Dew Point -4 °F
Humidity 20%
Rainfall 0.00 in
Snow Depth Not available.
7:32 AM 4:47 PM
Waxing Crescent, 14% visible
METAR KSLB 031015Z AUTO 22006KT 10SM OVC025 M00/M02 A3031 RMK AO2
Pressure 30.31 in
Visibility 10.0 miles
Clouds Overcast 2500 ft
Windchill 33 °F
Dew Point -4 °F
Humidity 20%
Rainfall 0.00 in
Snow Depth Not available.
7:32 AM 4:47 PM
Waxing Crescent, 14% visible
METAR KSLB 031015Z AUTO 22006KT 10SM OVC025 M00/M02 A3031 RMK AO2

10-Day Weather Forecast

Almanac

Astronomy

Dec. 03, 2016 Rise Set
Actual Time
Civil Twilight
Nautical Twilight
Astronomical Twilight
Moon
Length of Visible Light
Length of Day
Tomorrow will be .
, % of the Moon is Illuminated

Today's Extremes

State Highs State Lows

Community

WunderPhotos

Upload Photos

1,955,434 photos uploaded!

WunderBlog® & News

Nearby

Air Quality

  Air Quality AQ Index Pollutant
Not available.

Snow Depth

Station Depth Elevation

Earthquake Activity

City Distance Mag. Time & Date
Minimum magnitude displayed is 2.5.

Coastal Water Temperatures

Place Temperature

Stations

Nearby Weather Stations

Station Location Temp. Windchill Dew Point Humidity Wind Precip. Elev Updated Type
                   

Watches & Warnings

There are currently no watches in effect.